createdAt,value
2023-03-15T00:01:18.657Z,23.30
2023-03-15T00:03:48.261Z,22.20
2023-03-15T00:06:17.114Z,22.00
2023-03-15T00:08:47.782Z,22.50
2023-03-15T00:11:16.961Z,21.60
2023-03-15T00:13:46.486Z,21.90
2023-03-15T00:16:17.968Z,21.30
2023-03-15T00:18:47.365Z,22.00
2023-03-15T00:21:15.873Z,21.30
2023-03-15T00:23:45.182Z,20.80
2023-03-15T00:26:14.065Z,19.30
2023-03-15T00:28:42.218Z,19.20
2023-03-15T00:31:22.387Z,17.50
2023-03-15T00:33:56.725Z,17.70
2023-03-15T00:36:25.784Z,18.00
2023-03-15T00:38:56.434Z,20.80
2023-03-15T00:41:25.436Z,19.80
2023-03-15T00:43:54.074Z,19.10
2023-03-15T00:46:22.227Z,19.40
2023-03-15T00:48:52.009Z,18.20
2023-03-15T00:51:22.521Z,20.40
2023-03-15T00:53:53.351Z,17.40
2023-03-15T00:56:24.120Z,17.00
2023-03-15T00:58:53.188Z,15.40
2023-03-15T01:01:27.114Z,13.40
2023-03-15T01:03:56.631Z,13.90
2023-03-15T01:06:28.536Z,14.10
2023-03-15T01:08:57.626Z,18.00
2023-03-15T01:11:28.348Z,16.80
2023-03-15T01:13:59.731Z,18.80
2023-03-15T01:16:29.916Z,17.00
2023-03-15T01:18:57.934Z,18.50
2023-03-15T01:21:27.689Z,18.00
2023-03-15T01:23:56.086Z,18.70
2023-03-15T01:26:26.272Z,19.40
2023-03-15T01:28:55.317Z,15.90
2023-03-15T01:31:27.009Z,13.60
2023-03-15T01:33:56.930Z,15.20
2023-03-15T01:36:25.897Z,13.90
2023-03-15T01:38:55.062Z,13.10
2023-03-15T01:41:29.118Z,14.00
2023-03-15T01:43:57.686Z,14.30
2023-03-15T01:46:35.996Z,13.10
2023-03-15T01:49:27.312Z,12.80
2023-03-15T01:52:02.146Z,13.40
2023-03-15T01:54:46.300Z,11.90
2023-03-15T01:57:31.176Z,12.20
2023-03-15T02:00:11.414Z,10.90
2023-03-15T02:03:14.585Z,11.90
2023-03-15T02:05:48.297Z,12.00
2023-03-15T02:08:29.981Z,11.60
2023-03-15T02:10:58.883Z,13.00
2023-03-15T02:13:30.734Z,14.00
2023-03-15T02:16:00.522Z,13.70
2023-03-15T02:18:37.425Z,12.90
2023-03-15T02:21:11.553Z,12.80
2023-03-15T02:23:40.556Z,12.30
2023-03-15T02:26:27.199Z,13.40
2023-03-15T02:28:56.216Z,13.30
2023-03-15T02:31:24.448Z,12.60
2023-03-15T02:33:56.957Z,13.20
2023-03-15T02:36:28.501Z,12.30
2023-03-15T02:38:57.312Z,13.60
2023-03-15T02:41:34.113Z,11.90
2023-03-15T02:44:08.778Z,12.30
2023-03-15T02:46:38.532Z,12.20
2023-03-15T02:49:08.532Z,13.20
2023-03-15T02:51:36.501Z,12.90
2023-03-15T02:54:04.511Z,11.70
2023-03-15T02:56:34.028Z,12.20
2023-03-15T02:59:02.780Z,12.40
2023-03-15T03:01:31.749Z,11.20
2023-03-15T03:03:59.955Z,14.00
2023-03-15T03:06:28.069Z,13.50
2023-03-15T03:08:56.652Z,11.90
2023-03-15T03:11:25.399Z,12.60
2023-03-15T03:13:58.578Z,14.70
2023-03-15T03:16:27.859Z,13.80
2023-03-15T03:18:55.932Z,14.10
2023-03-15T03:21:24.225Z,14.00
2023-03-15T03:23:54.826Z,12.80
2023-03-15T03:26:27.979Z,13.80
2023-03-15T03:28:57.592Z,13.50
2023-03-15T03:31:27.931Z,11.30
2023-03-15T03:33:57.394Z,12.00
2023-03-15T03:36:26.516Z,12.30
2023-03-15T03:38:55.041Z,12.30
2023-03-15T03:41:24.805Z,12.80
2023-03-15T03:43:54.042Z,11.70
2023-03-15T03:46:23.168Z,12.50
2023-03-15T03:48:53.283Z,12.70
2023-03-15T03:51:23.128Z,12.50
2023-03-15T03:53:51.235Z,11.60
2023-03-15T03:56:19.327Z,11.40
2023-03-15T03:58:48.549Z,10.70
2023-03-15T04:01:22.275Z,13.40
2023-03-15T04:03:52.604Z,11.90
2023-03-15T04:06:23.079Z,12.80
2023-03-15T04:08:51.179Z,12.80
2023-03-15T04:11:28.988Z,13.10
2023-03-15T04:14:00.621Z,12.80
2023-03-15T04:16:29.169Z,12.60
2023-03-15T04:19:11.592Z,12.30
2023-03-15T04:21:39.826Z,12.20
2023-03-15T04:24:19.336Z,12.10
2023-03-15T04:27:14.803Z,13.00
2023-03-15T04:30:05.843Z,11.70
2023-03-15T04:32:40.031Z,12.80
2023-03-15T04:35:42.631Z,11.60
2023-03-15T04:38:35.677Z,12.60
2023-03-15T04:41:28.610Z,13.00
2023-03-15T04:44:16.518Z,11.80
2023-03-15T04:46:58.472Z,11.60
2023-03-15T04:49:55.101Z,12.60
2023-03-15T04:52:47.954Z,12.20
2023-03-15T04:55:34.330Z,11.40
2023-03-15T04:58:32.085Z,8.00
2023-03-15T05:01:19.119Z,9.40
2023-03-15T05:04:08.294Z,10.10
2023-03-15T05:06:57.183Z,10.70
2023-03-15T05:09:46.344Z,10.80
2023-03-15T05:12:35.207Z,10.00
2023-03-15T05:15:21.634Z,11.70
2023-03-15T05:18:09.748Z,11.30
2023-03-15T05:20:51.696Z,11.70
2023-03-15T05:23:19.732Z,10.80
2023-03-15T05:26:14.986Z,12.50
2023-03-15T05:29:09.284Z,10.90
2023-03-15T05:31:50.278Z,10.80
2023-03-15T05:34:29.707Z,11.20
2023-03-15T05:37:18.319Z,11.10
2023-03-15T05:40:15.545Z,10.10
2023-03-15T05:45:24.668Z,11.00
2023-03-15T05:48:11.488Z,12.10
2023-03-15T05:51:13.385Z,10.60
2023-03-15T05:54:05.388Z,11.30
2023-03-15T05:56:47.826Z,11.60
2023-03-15T05:59:36.468Z,11.70
2023-03-15T06:02:44.640Z,12.40
2023-03-15T06:05:32.948Z,12.70
2023-03-15T06:08:05.472Z,14.40
2023-03-15T06:10:33.968Z,13.90
2023-03-15T06:13:06.135Z,12.30
2023-03-15T06:15:34.483Z,13.60
2023-03-15T06:18:02.959Z,12.80
2023-03-15T06:20:32.519Z,12.40
2023-03-15T06:23:05.688Z,11.70
2023-03-15T06:25:41.303Z,11.90
2023-03-15T06:28:09.355Z,12.60
2023-03-15T06:30:45.041Z,12.00
2023-03-15T06:33:13.341Z,12.60
2023-03-15T06:35:42.277Z,12.70
2023-03-15T06:38:14.776Z,13.40
2023-03-15T06:40:44.173Z,11.90
2023-03-15T06:43:18.718Z,10.10
2023-03-15T06:45:49.460Z,11.50
2023-03-15T06:48:21.179Z,10.00
2023-03-15T06:50:54.912Z,10.30
2023-03-15T06:53:26.846Z,10.50
2023-03-15T06:55:55.558Z,9.00
2023-03-15T06:58:23.742Z,9.80
2023-03-15T07:00:52.472Z,9.80
2023-03-15T07:03:22.404Z,10.90
2023-03-15T07:05:54.471Z,11.40
2023-03-15T07:08:24.153Z,11.20
2023-03-15T07:10:52.589Z,10.80
2023-03-15T07:13:20.849Z,10.50
2023-03-15T07:15:54.722Z,12.70
2023-03-15T07:18:25.776Z,11.30
2023-03-15T07:21:00.377Z,10.50
2023-03-15T07:23:30.592Z,11.70
2023-03-15T07:26:05.731Z,10.20
2023-03-15T07:28:33.986Z,11.80
2023-03-15T07:31:05.937Z,11.90
2023-03-15T07:33:36.734Z,11.90
2023-03-15T07:36:09.817Z,12.80
2023-03-15T07:38:40.795Z,12.20
2023-03-15T07:41:12.903Z,13.40
2023-03-15T07:43:46.238Z,12.70
2023-03-15T07:46:19.871Z,16.00
2023-03-15T07:48:49.348Z,13.50
2023-03-15T07:51:17.515Z,13.40
2023-03-15T07:53:45.782Z,14.50
2023-03-15T07:56:14.140Z,14.80
2023-03-15T07:58:43.256Z,13.10
2023-03-15T08:01:11.604Z,11.80
2023-03-15T08:03:40.897Z,13.30
2023-03-15T08:06:10.011Z,11.80
2023-03-15T08:08:38.093Z,12.50
2023-03-15T08:11:09.271Z,13.60
2023-03-15T08:13:37.345Z,14.50
2023-03-15T08:16:05.636Z,12.60
2023-03-15T08:18:33.842Z,11.10
2023-03-15T08:21:04.343Z,12.80
2023-03-15T08:23:35.214Z,13.30
2023-03-15T08:26:05.488Z,12.10
2023-03-15T08:28:36.425Z,10.90
2023-03-15T08:31:09.729Z,13.00
2023-03-15T08:33:37.795Z,12.40
2023-03-15T08:36:06.684Z,12.20
2023-03-15T08:38:34.868Z,12.00
2023-03-15T08:41:03.645Z,10.70
2023-03-15T08:43:31.790Z,9.60
2023-03-15T08:46:03.423Z,9.60
2023-03-15T08:48:38.792Z,11.30
2023-03-15T08:51:09.037Z,11.70
2023-03-15T08:53:37.842Z,11.90
2023-03-15T08:56:06.258Z,12.70
2023-03-15T08:58:34.791Z,13.60
2023-03-15T09:01:05.061Z,12.50
2023-03-15T09:03:33.333Z,15.10
2023-03-15T09:06:02.217Z,10.40
2023-03-15T09:08:30.355Z,12.90
2023-03-15T09:11:00.012Z,11.30
2023-03-15T09:13:30.638Z,10.90
2023-03-15T09:15:59.921Z,11.80
2023-03-15T09:18:29.078Z,12.50
2023-03-15T09:20:59.380Z,11.60
2023-03-15T09:23:27.574Z,13.40
2023-03-15T09:25:55.947Z,12.40
2023-03-15T09:28:25.627Z,11.50
2023-03-15T09:30:54.776Z,12.50
2023-03-15T09:33:23.108Z,15.20
2023-03-15T09:35:52.541Z,13.40
2023-03-15T09:38:23.189Z,14.00
2023-03-15T09:40:57.547Z,12.90
2023-03-15T09:43:48.590Z,13.20
2023-03-15T09:46:46.516Z,13.60
2023-03-15T09:49:23.121Z,21.60
2023-03-15T09:52:09.794Z,17.70
2023-03-15T09:54:56.573Z,12.90
2023-03-15T09:57:35.626Z,19.20
2023-03-15T10:00:12.877Z,11.80
2023-03-15T10:02:53.457Z,11.50
2023-03-15T10:05:26.276Z,11.00
2023-03-15T10:07:55.848Z,12.10
2023-03-15T10:10:54.671Z,10.60
2023-03-15T10:13:37.392Z,9.60
2023-03-15T10:16:35.591Z,10.70
2023-03-15T10:19:10.662Z,10.10
2023-03-15T10:21:59.334Z,11.10
2023-03-15T10:24:48.736Z,9.30
2023-03-15T10:27:28.490Z,8.90
2023-03-15T10:29:59.269Z,8.50
2023-03-15T10:32:34.622Z,9.70
2023-03-15T10:35:06.800Z,10.40
2023-03-15T10:37:35.781Z,12.10
2023-03-15T10:40:08.019Z,14.10
2023-03-15T11:24:49.589Z,9.40
2023-03-15T11:27:21.408Z,9.50
2023-03-15T11:29:56.908Z,9.50
2023-03-15T11:32:36.401Z,11.50
2023-03-15T11:35:12.832Z,13.80
2023-03-15T11:37:58.552Z,9.60
2023-03-15T11:40:44.611Z,10.00
2023-03-15T11:43:21.889Z,10.50
2023-03-15T11:46:00.719Z,9.30
2023-03-15T11:48:49.992Z,12.40
2023-03-15T11:51:19.267Z,12.90
2023-03-15T11:54:05.673Z,17.80
2023-03-15T11:56:49.058Z,9.90
2023-03-15T11:59:23.978Z,11.60
2023-03-15T12:01:56.001Z,8.50
2023-03-15T12:04:33.680Z,8.60
2023-03-15T12:07:13.029Z,8.00
2023-03-15T12:10:24.240Z,7.00
2023-03-15T12:13:06.934Z,8.10
2023-03-15T12:15:38.788Z,11.10
2023-03-15T12:18:15.524Z,11.80
2023-03-15T12:20:54.467Z,8.90
2023-03-15T12:23:34.768Z,10.60
2023-03-15T12:26:22.363Z,9.00
2023-03-15T12:29:04.136Z,8.60
2023-03-15T12:32:16.691Z,9.00
2023-03-15T12:35:22.658Z,13.60
2023-03-15T12:38:24.757Z,12.00
2023-03-15T12:40:59.163Z,8.10
2023-03-15T12:43:43.448Z,7.20
2023-03-15T12:46:45.331Z,7.70
2023-03-15T12:49:29.661Z,8.40
2023-03-15T12:52:08.903Z,8.70
2023-03-15T12:54:50.531Z,9.20
2023-03-15T12:57:24.983Z,7.80
2023-03-15T12:59:59.112Z,9.00
2023-03-15T13:02:51.940Z,8.60
2023-03-15T13:05:26.257Z,13.40
2023-03-15T13:08:23.130Z,9.30
2023-03-15T13:11:06.754Z,7.90
2023-03-15T13:14:07.411Z,10.00
2023-03-15T13:16:50.996Z,10.80
2023-03-15T13:19:26.229Z,7.70
2023-03-15T13:22:02.053Z,21.20
2023-03-15T13:24:53.455Z,9.60
2023-03-15T13:27:50.347Z,8.10
2023-03-15T13:30:33.490Z,8.80
2023-03-15T13:33:28.298Z,9.40
2023-03-15T13:36:01.496Z,10.60
2023-03-15T13:38:40.621Z,7.90
2023-03-15T13:41:28.118Z,8.00
2023-03-15T13:44:00.667Z,9.90
2023-03-15T13:46:30.939Z,7.20
2023-03-15T13:49:03.444Z,8.80
2023-03-15T13:51:37.642Z,10.60
2023-03-15T13:54:16.653Z,7.60
2023-03-15T13:56:57.535Z,8.10
2023-03-15T13:59:40.833Z,7.80
2023-03-15T14:02:33.925Z,7.50
2023-03-15T14:05:09.485Z,7.90
2023-03-15T14:07:39.043Z,9.30
2023-03-15T14:10:23.172Z,11.10
2023-03-15T14:12:52.978Z,12.10
2023-03-15T14:15:31.256Z,12.10
2023-03-15T14:18:02.214Z,12.50
2023-03-15T14:20:40.928Z,15.90
2023-03-15T14:23:14.437Z,16.30
2023-03-15T14:25:43.448Z,17.50
2023-03-15T14:28:15.920Z,17.40
2023-03-15T14:30:54.522Z,16.80
2023-03-15T14:33:32.844Z,15.50
2023-03-15T14:36:04.215Z,13.80
2023-03-15T14:38:38.242Z,14.10
2023-03-15T14:41:27.722Z,11.90
2023-03-15T14:43:56.049Z,11.80
2023-03-15T14:46:25.130Z,12.30
2023-03-15T14:48:53.449Z,12.10
2023-03-15T14:51:23.662Z,11.30
2023-03-15T14:53:56.198Z,11.90
2023-03-15T14:56:26.021Z,9.30
2023-03-15T14:58:55.690Z,12.00
2023-03-15T15:01:27.293Z,11.10
2023-03-15T15:04:02.085Z,11.40
2023-03-15T15:06:38.058Z,13.60
2023-03-15T15:09:06.942Z,13.80
2023-03-15T15:11:35.588Z,11.50
2023-03-15T15:14:14.886Z,11.30
2023-03-15T15:16:44.258Z,9.50
2023-03-15T15:19:13.075Z,7.60
2023-03-15T15:21:44.484Z,8.10
2023-03-15T15:24:18.921Z,9.70
2023-03-15T15:26:47.415Z,10.20
2023-03-15T15:29:19.172Z,10.30
2023-03-15T15:31:48.417Z,10.20
2023-03-15T15:34:17.627Z,8.80
2023-03-15T15:36:46.457Z,9.90
2023-03-15T15:39:23.961Z,10.00
2023-03-15T15:41:53.798Z,9.90
2023-03-15T15:44:25.703Z,9.70
2023-03-15T15:46:54.047Z,10.50
2023-03-15T15:49:22.597Z,10.50
2023-03-15T15:51:51.510Z,9.50
2023-03-15T15:54:24.994Z,9.50
2023-03-15T15:57:01.231Z,23.10
2023-03-15T15:59:30.788Z,11.40
2023-03-15T16:02:01.914Z,9.30
2023-03-15T16:04:33.159Z,8.80
2023-03-15T16:07:03.826Z,9.70
2023-03-15T16:09:36.683Z,6.90
2023-03-15T16:12:12.200Z,11.00
2023-03-15T16:14:41.905Z,9.90
2023-03-15T16:17:14.782Z,9.60
2023-03-15T16:19:43.509Z,8.90
2023-03-15T16:22:11.618Z,9.10
2023-03-15T16:24:45.924Z,8.60
2023-03-15T16:27:17.642Z,8.50
2023-03-15T16:29:47.860Z,9.40
2023-03-15T16:32:37.242Z,9.10
2023-03-15T16:35:15.831Z,9.20
2023-03-15T16:37:46.365Z,9.00
2023-03-15T16:40:28.107Z,8.60
2023-03-15T16:42:56.792Z,9.00
2023-03-15T16:45:25.282Z,8.20
2023-03-15T16:47:53.888Z,9.00
2023-03-15T16:50:22.678Z,9.00
2023-03-15T16:52:55.116Z,7.70
2023-03-15T16:55:31.911Z,6.10
2023-03-15T16:58:12.067Z,8.80
2023-03-15T17:00:44.961Z,7.60
2023-03-15T17:03:13.998Z,7.80
2023-03-15T17:05:46.001Z,5.40
2023-03-15T17:08:19.238Z,8.20
2023-03-15T17:10:50.531Z,7.20
2023-03-15T17:13:29.913Z,7.40
2023-03-15T17:15:59.799Z,7.90
2023-03-15T17:18:30.210Z,8.60
2023-03-15T17:20:58.339Z,9.80
2023-03-15T17:23:26.435Z,7.50
2023-03-15T17:25:55.976Z,9.40
2023-03-15T17:28:24.376Z,7.90
2023-03-15T17:30:59.599Z,8.70
2023-03-15T17:33:37.229Z,8.70
2023-03-15T17:36:10.229Z,9.00
2023-03-15T17:38:42.520Z,9.30
2023-03-15T17:41:40.669Z,8.90
2023-03-15T17:44:10.631Z,8.10
2023-03-15T17:46:38.916Z,8.40
2023-03-15T17:49:09.206Z,7.40
2023-03-15T17:51:38.489Z,7.40
2023-03-15T17:54:14.384Z,7.70
2023-03-15T17:56:44.566Z,6.50
2023-03-15T17:59:13.386Z,7.40
2023-03-15T18:01:45.760Z,7.60
2023-03-15T18:04:14.867Z,6.80
2023-03-15T18:06:43.308Z,7.70
2023-03-15T18:09:13.201Z,7.90
2023-03-15T18:11:43.184Z,6.60
2023-03-15T18:14:18.210Z,6.80
2023-03-15T18:16:46.515Z,7.80
2023-03-15T18:19:15.510Z,7.00
2023-03-15T18:21:43.704Z,6.50
2023-03-15T18:24:14.461Z,6.10
2023-03-15T18:26:42.624Z,6.00
2023-03-15T18:29:10.923Z,7.00
2023-03-15T18:31:41.346Z,5.80
2023-03-15T18:34:15.253Z,6.60
2023-03-15T18:36:44.062Z,7.70
2023-03-15T18:39:12.336Z,5.40
2023-03-15T18:41:40.709Z,7.20
2023-03-15T18:44:10.805Z,6.50
2023-03-15T18:46:39.140Z,5.70
2023-03-15T18:49:07.087Z,6.20
2023-03-15T18:51:37.826Z,6.80
2023-03-15T18:54:06.461Z,6.70
2023-03-15T18:56:34.830Z,6.20
2023-03-15T18:59:03.718Z,5.60
2023-03-15T19:01:32.640Z,5.20
2023-03-15T19:04:00.712Z,4.80
2023-03-15T19:06:31.305Z,5.00
2023-03-15T19:09:01.875Z,4.80
2023-03-15T19:11:31.859Z,4.80
2023-03-15T19:14:00.254Z,4.20
2023-03-15T19:16:30.927Z,4.90
2023-03-15T19:18:59.235Z,3.30
2023-03-15T19:21:28.285Z,3.90
2023-03-15T19:23:58.132Z,4.00
2023-03-15T19:26:26.365Z,3.30
2023-03-15T19:28:56.509Z,3.00
2023-03-15T19:31:24.799Z,3.10
2023-03-15T19:33:53.900Z,2.90
2023-03-15T19:36:22.398Z,3.50
2023-03-15T19:38:50.907Z,3.00
2023-03-15T19:41:19.781Z,3.30
2023-03-15T19:43:47.951Z,2.00
2023-03-15T19:46:17.473Z,2.70
2023-03-15T19:48:47.062Z,2.50
2023-03-15T19:51:16.500Z,2.40
2023-03-15T19:53:44.533Z,2.70
2023-03-15T19:56:13.040Z,3.50
2023-03-15T19:58:41.668Z,3.20
2023-03-15T20:01:09.885Z,3.20
2023-03-15T20:03:39.464Z,2.50
2023-03-15T20:06:10.336Z,2.60
2023-03-15T20:08:39.414Z,2.30
2023-03-15T20:11:08.336Z,2.00
2023-03-15T20:13:37.207Z,2.90
2023-03-15T20:16:06.068Z,2.40
2023-03-15T20:18:34.104Z,2.50
2023-03-15T20:21:02.201Z,2.20
2023-03-15T20:23:33.485Z,2.20
2023-03-15T20:26:10.994Z,2.30
2023-03-15T20:28:40.452Z,2.50
2023-03-15T20:31:11.248Z,2.00
2023-03-15T20:33:40.028Z,3.10
2023-03-15T20:36:08.201Z,3.10
2023-03-15T20:38:37.410Z,2.60
2023-03-15T20:41:06.953Z,2.90
2023-03-15T20:43:37.918Z,2.60
2023-03-15T20:46:06.771Z,2.60
2023-03-15T20:48:38.292Z,2.30
2023-03-15T20:51:06.836Z,1.90
2023-03-15T20:53:36.599Z,1.90
2023-03-15T20:56:05.505Z,1.80
2023-03-15T20:58:33.583Z,1.60
2023-03-15T21:01:03.585Z,2.30
2023-03-15T21:03:34.103Z,2.10
2023-03-15T21:06:04.705Z,1.70
2023-03-15T21:08:34.905Z,2.00
2023-03-15T21:11:11.132Z,1.70
2023-03-15T21:13:40.125Z,1.70
2023-03-15T21:16:13.011Z,1.70
2023-03-15T21:18:45.652Z,2.00
2023-03-15T21:21:15.197Z,1.80
2023-03-15T21:23:43.199Z,1.80
2023-03-15T21:26:13.642Z,1.70
2023-03-15T21:28:42.383Z,1.60
2023-03-15T21:31:12.633Z,1.60
2023-03-15T21:33:41.024Z,1.70
2023-03-15T21:36:09.468Z,1.60
2023-03-15T21:38:37.702Z,1.80
2023-03-15T21:41:09.201Z,2.10
2023-03-15T21:43:38.714Z,2.20
2023-03-15T21:46:10.874Z,1.60
2023-03-15T21:48:39.112Z,2.00
2023-03-15T21:51:08.367Z,1.90
2023-03-15T21:53:37.121Z,2.00
2023-03-15T21:56:05.431Z,2.00
2023-03-15T21:58:33.467Z,2.10
2023-03-15T22:01:08.131Z,2.00
2023-03-15T22:03:36.800Z,2.10
2023-03-15T22:06:05.268Z,2.00
2023-03-15T22:08:36.929Z,2.20
2023-03-15T22:11:05.217Z,1.90
2023-03-15T22:13:33.438Z,1.50
2023-03-15T22:16:01.596Z,2.20
2023-03-15T22:18:30.594Z,1.90
2023-03-15T22:20:58.619Z,2.00
2023-03-15T22:23:27.404Z,2.10
2023-03-15T22:25:57.157Z,2.00
2023-03-15T22:28:25.308Z,1.90
2023-03-15T22:30:53.744Z,2.00
2023-03-15T22:33:22.958Z,2.10
2023-03-15T22:35:58.797Z,2.20
2023-03-15T22:38:26.954Z,2.00
2023-03-15T22:41:03.643Z,2.10
2023-03-15T22:43:31.628Z,2.10
2023-03-15T22:45:59.765Z,2.10
2023-03-15T22:48:28.368Z,2.20
2023-03-15T22:51:01.053Z,2.10
2023-03-15T22:53:29.896Z,1.80
2023-03-15T22:55:58.408Z,1.90
2023-03-15T22:58:26.961Z,1.70
2023-03-15T23:00:55.267Z,1.80
2023-03-15T23:03:25.059Z,2.40
2023-03-15T23:05:54.795Z,1.70
2023-03-15T23:08:24.238Z,2.30
2023-03-15T23:10:52.212Z,1.90
2023-03-15T23:13:20.239Z,1.80
2023-03-15T23:15:48.486Z,2.10
2023-03-15T23:18:16.442Z,1.70
2023-03-15T23:20:44.410Z,1.60
2023-03-15T23:23:12.468Z,1.80
2023-03-15T23:25:40.566Z,1.70
2023-03-15T23:28:09.132Z,1.90
2023-03-15T23:30:39.910Z,1.90
2023-03-15T23:33:08.837Z,1.80
2023-03-15T23:35:37.130Z,1.60
2023-03-15T23:38:05.125Z,1.50
2023-03-15T23:40:33.515Z,1.60
2023-03-15T23:43:01.613Z,1.70
2023-03-15T23:45:30.246Z,1.80
2023-03-15T23:47:58.925Z,1.90
2023-03-15T23:50:27.408Z,2.00
2023-03-15T23:52:56.312Z,1.50
2023-03-15T23:55:25.048Z,1.50
2023-03-15T23:57:53.146Z,1.90
